createdAt,value
2023-03-07T00:02:40.298Z,8.04
2023-03-07T00:22:46.008Z,8.18
2023-03-07T00:42:51.721Z,10.69
2023-03-07T01:02:57.490Z,7.72
2023-03-07T01:23:03.266Z,7.66
2023-03-07T01:43:09.016Z,7.74
2023-03-07T02:03:14.886Z,7.80
2023-03-07T02:23:20.596Z,6.96
2023-03-07T02:43:26.362Z,7.10
2023-03-07T03:03:32.153Z,7.67
2023-03-07T03:23:37.954Z,7.20
2023-03-07T03:43:43.737Z,7.02
2023-03-07T04:03:49.498Z,7.32
2023-03-07T04:23:55.255Z,6.97
2023-03-07T04:44:01.027Z,7.55
2023-03-07T05:04:06.839Z,6.92
2023-03-07T05:24:12.628Z,7.14
2023-03-07T05:44:18.405Z,7.54
2023-03-07T06:04:24.201Z,6.94
2023-03-07T06:24:29.977Z,7.70
2023-03-07T06:44:35.825Z,6.65
2023-03-07T07:04:41.615Z,5.68
2023-03-07T07:24:47.364Z,6.55
2023-03-07T07:44:53.181Z,6.13
2023-03-07T08:04:58.987Z,6.04
2023-03-07T08:25:04.800Z,6.57
2023-03-07T08:45:10.580Z,6.08
2023-03-07T09:05:16.326Z,6.00
2023-03-07T09:25:22.144Z,5.96
2023-03-07T09:45:27.968Z,6.44
2023-03-07T10:05:33.809Z,7.51
2023-03-07T10:25:40.125Z,5.75
2023-03-07T10:45:45.892Z,5.96
2023-03-07T11:05:51.671Z,6.14
2023-03-07T11:25:57.488Z,5.30
2023-03-07T11:46:03.313Z,5.73
2023-03-07T12:06:09.114Z,4.36
2023-03-07T12:26:15.417Z,4.85
2023-03-07T12:46:21.259Z,4.36
2023-03-07T13:06:27.014Z,4.47
2023-03-07T13:26:32.769Z,4.59
2023-03-07T13:46:38.529Z,4.32
2023-03-07T14:06:44.753Z,4.75
2023-03-07T14:26:50.535Z,5.04
2023-03-07T14:46:56.343Z,4.51
2023-03-07T15:07:02.337Z,4.54
2023-03-07T15:27:08.150Z,4.84
2023-03-07T15:47:13.986Z,4.14
2023-03-07T16:07:19.770Z,3.88
2023-03-07T16:27:25.503Z,3.94
2023-03-07T16:47:31.267Z,4.42
2023-03-07T17:07:37.150Z,4.53
2023-03-07T17:27:42.926Z,4.47
2023-03-07T17:47:48.689Z,3.85
2023-03-07T18:07:54.454Z,5.75
2023-03-07T18:28:00.283Z,5.68
2023-03-07T18:48:06.043Z,3.47
2023-03-07T19:08:11.827Z,4.39
2023-03-07T19:28:17.681Z,3.53
2023-03-07T19:48:23.510Z,4.19
2023-03-07T20:08:29.315Z,3.51
2023-03-07T20:28:35.144Z,4.07
2023-03-07T20:48:42.487Z,3.92
2023-03-07T21:08:48.324Z,4.60
2023-03-07T21:28:54.181Z,4.84
2023-03-07T21:49:00.042Z,3.77
2023-03-07T22:09:05.891Z,4.47
2023-03-07T22:29:11.742Z,5.62
2023-03-07T22:49:17.669Z,4.59
2023-03-07T23:09:23.607Z,4.76
2023-03-07T23:29:29.472Z,4.34
2023-03-07T23:49:35.411Z,4.56
